Time;durP1;ratioP1;P1;durP2;ratioP2;P2;SDS_P1;SDS_P2;PMS_P1;PMS_P2;Temp;Humidity;BMP_temperature;BMP_pressure;BME280_temperature;BME280_humidity;BME280_pressure;Samples;Min_cycle;Max_cycle;Signal;HPM_P1;HPM_P2
2020/12/23 05:02:09;;;;;;;1999.90;999.90;;;11.10;99.90;;;;;;5182713;23;20231;-78
2020/12/23 05:04:36;;;;;;;1999.90;999.90;;;11.00;99.90;;;;;;4993244;28;20204;-76
2020/12/23 05:07:05;;;;;;;1999.90;999.90;;;11.00;99.90;;;;;;4993402;28;20251;-76
2020/12/23 05:09:32;;;;;;;1999.90;999.90;;;11.00;99.90;;;;;;4993143;28;20200;-77
2020/12/23 05:12:00;;;;;;;1999.90;999.90;;;10.80;99.90;;;;;;4993459;28;20286;-76
2020/12/23 05:14:28;;;;;;;1999.90;999.90;;;10.70;99.90;;;;;;4993783;28;20204;-77
2020/12/23 05:16:56;;;;;;;1999.90;999.90;;;10.80;99.90;;;;;;4993727;28;20259;-76
2020/12/23 05:19:24;;;;;;;1999.90;999.90;;;10.90;99.90;;;;;;4993086;28;20208;-79
2020/12/23 05:21:50;;;;;;;1999.90;999.90;;;11.00;99.90;;;;;;4993074;28;20271;-78
2020/12/23 05:24:18;;;;;;;1999.90;999.90;;;11.00;99.90;;;;;;4993067;28;20262;-77
2020/12/23 05:26:45;;;;;;;1999.90;999.90;;;11.10;99.90;;;;;;4993217;28;20220;-77
2020/12/23 05:29:14;;;;;;;1999.90;999.90;;;11.10;99.90;;;;;;4993004;28;20207;-77
2020/12/23 05:31:42;;;;;;;1999.90;999.90;;;10.90;99.90;;;;;;4987019;28;20227;-77
2020/12/23 05:34:09;;;;;;;1999.90;999.90;;;10.80;99.90;;;;;;4993098;28;20262;-77
2020/12/23 05:36:40;;;;;;;1999.90;999.90;;;11.00;99.90;;;;;;4992886;28;20668;-77
2020/12/23 05:39:09;;;;;;;1999.90;999.90;;;11.00;99.90;;;;;;4987172;28;20204;-76
2020/12/23 05:41:39;;;;;;;1999.90;999.90;;;11.10;99.90;;;;;;4992907;28;20220;-78
2020/12/23 05:44:19;;;;;;;1999.90;999.90;;;11.10;99.90;;;;;;4993130;28;20200;-77
2020/12/23 05:46:47;;;;;;;1999.90;999.90;;;11.10;99.90;;;;;;4992816;28;20228;-77
2020/12/23 05:49:15;;;;;;;1999.90;999.90;;;11.10;99.90;;;;;;4993258;28;20298;-78
2020/12/23 05:51:43;;;;;;;1999.90;999.90;;;10.90;99.90;;;;;;4994776;28;20224;-78
2020/12/23 05:54:11;;;;;;;1999.90;999.90;;;10.90;99.90;;;;;;4993730;28;20661;-80
2020/12/23 05:56:39;;;;;;;1999.90;999.90;;;11.00;99.90;;;;;;4994134;28;20258;-77
2020/12/23 05:59:06;;;;;;;1999.90;999.90;;;11.00;99.90;;;;;;4992344;28;20208;-77
2020/12/23 06:01:35;;;;;;;1999.90;999.90;;;11.00;99.90;;;;;;4992588;28;20314;-78
2020/12/23 06:04:04;;;;;;;1999.90;999.90;;;11.00;99.90;;;;;;4993403;28;20210;-78
2020/12/23 06:06:32;;;;;;;1999.90;999.90;;;11.10;99.90;;;;;;4993727;28;20208;-78
2020/12/23 06:09:04;;;;;;;1999.90;999.90;;;10.90;99.90;;;;;;4992673;28;20271;-76
2020/12/23 06:11:40;;;;;;;1999.90;999.90;;;10.70;99.90;;;;;;4992368;28;20227;-77
2020/12/23 06:14:13;;;;;;;1999.90;999.90;;;10.80;99.90;;;;;;4992591;28;20258;-77
2020/12/23 06:16:43;;;;;;;1999.90;999.90;;;10.90;99.90;;;;;;4992375;28;20582;-77
2020/12/23 06:19:12;;;;;;;1999.90;999.90;;;10.90;99.90;;;;;;4992326;28;20203;-77
2020/12/23 06:21:39;;;;;;;1999.90;999.90;;;11.00;99.90;;;;;;4993401;28;20224;-78
2020/12/23 06:24:13;;;;;;;1999.90;999.90;;;10.90;99.90;;;;;;4992939;28;20739;-77
2020/12/23 06:26:41;;;;;;;1999.90;999.90;;;10.90;99.90;;;;;;4993365;28;20231;-76
2020/12/23 06:29:09;;;;;;;1999.90;999.90;;;10.80;99.90;;;;;;4992310;28;20208;-76
2020/12/23 06:31:42;;;;;;;1999.90;999.90;;;10.70;99.90;;;;;;4994313;28;20227;-78
2020/12/23 06:34:13;;;;;;;1999.90;999.90;;;10.60;99.90;;;;;;4993083;28;20669;-77
2020/12/23 06:36:40;;;;;;;1999.90;999.90;;;10.50;99.90;;;;;;4996823;28;20192;-78
2020/12/23 06:39:25;;;;;;;1999.90;999.90;;;10.50;99.90;;;;;;4996935;28;20665;-79
2020/12/23 06:41:53;;;;;;;1999.90;999.90;;;10.60;99.90;;;;;;4996921;28;20228;-80
2020/12/23 06:44:23;;;;;;;1999.90;999.90;;;10.70;99.90;;;;;;4996646;28;20250;-80
2020/12/23 06:47:09;;;;;;;1999.90;999.90;;;10.80;99.90;;;;;;4998916;28;20228;-80
2020/12/23 06:49:38;;;;;;;1999.90;999.90;;;10.80;99.90;;;;;;5000317;28;20292;-79
2020/12/23 06:52:30;;;;;;;1999.90;999.90;;;10.80;99.90;;;;;;5002270;28;20286;-79
2020/12/23 06:55:01;;;;;;;1999.90;999.90;;;10.80;99.90;;;;;;4998133;28;20196;-80
2020/12/23 06:57:50;;;;;;;1999.90;999.90;;;10.70;99.90;;;;;;4999820;28;20185;-79
2020/12/23 07:00:36;;;;;;;1999.90;999.90;;;10.90;99.90;;;;;;4999454;28;20208;-81
2020/12/23 07:03:08;;;;;;;1999.90;999.90;;;11.00;99.90;;;;;;4999559;28;20207;-80
2020/12/23 07:05:43;;;;;;;1999.90;999.90;;;11.00;99.90;;;;;;5000197;28;20212;-79
2020/12/23 07:08:16;;;;;;;1999.90;999.90;;;11.00;99.90;;;;;;4997062;28;20638;-78
2020/12/23 07:10:47;;;;;;;1999.90;999.90;;;11.10;99.90;;;;;;4996615;28;20232;-79
2020/12/23 07:13:16;;;;;;;1999.90;999.90;;;11.20;99.90;;;;;;4997464;28;20262;-78
2020/12/23 07:15:44;;;;;;;1999.90;999.90;;;11.10;99.90;;;;;;4998620;28;20207;-77
2020/12/23 07:18:13;;;;;;;1999.90;999.90;;;11.00;99.90;;;;;;4998136;28;20200;-79
2020/12/23 07:20:41;;;;;;;1999.90;999.90;;;11.00;99.90;;;;;;4997740;28;20224;-78
2020/12/23 07:23:10;;;;;;;1999.90;999.90;;;11.00;99.90;;;;;;4998619;28;20216;-80
2020/12/23 07:25:44;;;;;;;1999.90;999.90;;;11.10;99.90;;;;;;4998353;28;20610;-79
2020/12/23 07:28:12;;;;;;;1999.90;999.90;;;11.10;99.90;;;;;;4997095;28;20263;-79
2020/12/23 07:30:41;;;;;;;1999.90;999.90;;;11.20;99.90;;;;;;4997851;28;20306;-78
2020/12/23 07:33:11;;;;;;;1999.90;999.90;;;11.40;99.90;;;;;;5000010;28;20623;-79
2020/12/23 07:35:38;;;;;;;1999.90;999.90;;;11.20;99.90;;;;;;4998382;28;20215;-80
2020/12/23 07:38:09;;;;;;;1999.90;999.90;;;11.10;99.90;;;;;;4997715;28;20246;-81
2020/12/23 07:40:36;;;;;;;1999.90;999.90;;;11.10;99.90;;;;;;4997151;28;20271;-80
2020/12/23 07:43:04;;;;;;;1999.90;999.90;;;11.10;99.90;;;;;;4997340;28;20258;-82
2020/12/23 07:45:34;;;;;;;1999.90;999.90;;;11.10;99.90;;;;;;4995730;28;20208;-81
2020/12/23 07:48:03;;;;;;;1999.90;999.90;;;11.10;99.90;;;;;;4995810;28;20220;-81
2020/12/23 07:50:31;;;;;;;1999.90;999.90;;;11.20;99.90;;;;;;4998948;28;20250;-79
2020/12/23 07:52:58;;;;;;;1999.90;999.90;;;11.30;99.90;;;;;;4999223;28;20231;-79
2020/12/23 07:55:25;;;;;;;1999.90;999.90;;;11.40;99.90;;;;;;4998247;28;20196;-79
2020/12/23 07:57:53;;;;;;;1999.90;999.90;;;11.30;99.90;;;;;;4998719;28;20270;-79
2020/12/23 08:00:21;;;;;;;1999.90;999.90;;;11.40;99.90;;;;;;4995727;28;20616;-80
2020/12/23 08:02:54;;;;;;;1999.90;999.90;;;11.30;99.90;;;;;;4995241;28;20204;-81
2020/12/23 08:05:21;;;;;;;1999.90;999.90;;;11.30;99.90;;;;;;4997228;28;20196;-80
2020/12/23 08:07:48;;;;;;;1999.90;999.90;;;11.30;99.90;;;;;;4996470;28;20223;-79
2020/12/23 08:10:17;;;;;;;1999.90;999.90;;;11.40;99.90;;;;;;5003447;28;20200;-81
2020/12/23 08:12:52;;;;;;;1999.90;999.90;;;11.40;99.90;;;;;;5009946;28;20202;-81
2020/12/23 08:15:19;;;;;;;1999.90;999.90;;;11.50;99.90;;;;;;5009041;28;20195;-80
2020/12/23 08:17:46;;;;;;;1999.90;999.90;;;11.50;99.90;;;;;;5005645;28;20192;-78
2020/12/23 08:20:15;;;;;;;1999.90;999.90;;;11.60;99.90;;;;;;5007233;28;20222;-78
2020/12/23 08:22:43;;;;;;;1999.90;999.90;;;11.50;99.90;;;;;;5016929;28;20233;-79
2020/12/23 08:25:13;;;;;;;1999.90;999.90;;;11.50;99.90;;;;;;5015733;28;20361;-78
2020/12/23 08:27:43;;;;;;;1999.90;999.90;;;11.40;99.90;;;;;;5015603;28;20250;-79
2020/12/23 08:30:12;;;;;;;1999.90;999.90;;;11.50;99.90;;;;;;5014757;28;20265;-78
2020/12/23 08:32:46;;;;;;;1999.90;999.90;;;11.50;99.90;;;;;;5015480;28;20269;-78
2020/12/23 08:35:17;;;;;;;1999.90;999.90;;;11.60;99.90;;;;;;5015627;28;20667;-78
2020/12/23 08:37:43;;;;;;;1999.90;999.90;;;11.60;99.90;;;;;;5015870;28;20250;-79
2020/12/23 08:40:14;;;;;;;1999.90;999.90;;;11.70;99.90;;;;;;5015870;28;20207;-80
2020/12/23 08:42:50;;;;;;;1999.90;999.90;;;11.80;99.90;;;;;;4999546;28;20600;-79
2020/12/23 08:45:24;;;;;;;1999.90;999.90;;;11.90;99.90;;;;;;4999243;28;20227;-81
2020/12/23 08:47:52;;;;;;;1999.90;999.90;;;11.90;99.90;;;;;;5006362;28;20210;-81
2020/12/23 08:50:21;;;;;;;1999.90;999.90;;;11.80;99.90;;;;;;5008977;28;20200;-80
2020/12/23 08:52:49;;;;;;;1999.90;999.90;;;11.80;99.90;;;;;;5000237;28;20747;-81
2020/12/23 08:55:18;;;;;;;1999.90;999.90;;;11.80;99.90;;;;;;4997723;28;20208;-80
2020/12/23 08:57:46;;;;;;;1999.90;999.90;;;11.80;99.90;;;;;;4996366;28;20204;-79
2020/12/23 09:00:17;;;;;;;1999.90;999.90;;;11.90;99.90;;;;;;4999113;28;20203;-81
2020/12/23 09:02:44;;;;;;;1999.90;999.90;;;12.00;99.90;;;;;;4997000;28;20200;-79
2020/12/23 09:05:27;;;;;;;1999.90;999.90;;;12.00;99.90;;;;;;4995233;28;20521;-78
2020/12/23 09:08:05;;;;;;;1999.90;999.90;;;12.00;99.90;;;;;;4998132;28;20278;-80
2020/12/23 09:10:33;;;;;;;1999.90;999.90;;;12.20;99.90;;;;;;5002687;28;20224;-79
2020/12/23 09:13:08;;;;;;;1999.90;999.90;;;12.40;99.90;;;;;;5003254;28;20218;-79
2020/12/23 09:15:35;;;;;;;1999.90;999.90;;;12.40;99.90;;;;;;5000481;28;20191;-81
2020/12/23 09:18:06;;;;;;;1999.90;999.90;;;12.40;99.90;;;;;;4996058;28;20561;-79
2020/12/23 09:20:35;;;;;;;1999.90;999.90;;;12.40;99.90;;;;;;4992551;28;20223;-77
2020/12/23 09:23:02;;;;;;;1999.90;999.90;;;12.40;99.90;;;;;;4992930;28;20203;-76
2020/12/23 09:25:31;;;;;;;1999.90;999.90;;;12.40;99.90;;;;;;4993110;28;20212;-77
2020/12/23 09:28:06;;;;;;;1999.90;999.90;;;12.50;99.90;;;;;;4992459;28;20628;-77
2020/12/23 09:30:38;;;;;;;1999.90;999.90;;;12.50;99.90;;;;;;4996797;28;20228;-81
2020/12/23 09:33:38;;;;;;;1999.90;999.90;;;12.50;99.90;;;;;;4996781;28;20614;-83
2020/12/23 09:36:40;;;;;;;1999.90;999.90;;;12.40;99.90;;;;;;4995234;28;20208;-84
2020/12/23 09:39:14;;;;;;;1999.90;999.90;;;12.40;99.90;;;;;;4994407;28;20331;-81
2020/12/23 09:41:41;;;;;;;1999.90;999.90;;;12.40;99.90;;;;;;4994835;28;20278;-81
2020/12/23 09:44:08;;;;;;;1999.90;999.90;;;12.40;99.90;;;;;;4995249;28;20208;-81
2020/12/23 09:46:36;;;;;;;1999.90;999.90;;;12.30;99.90;;;;;;4995778;28;20200;-79
2020/12/23 09:49:03;;;;;;;1999.90;999.90;;;12.30;99.90;;;;;;4994947;28;20231;-79
2020/12/23 09:51:30;;;;;;;1999.90;999.90;;;12.30;99.90;;;;;;4994146;28;20232;-83
2020/12/23 09:53:57;;;;;;;1999.90;999.90;;;12.40;99.90;;;;;;4993558;28;20204;-81
2020/12/23 09:56:24;;;;;;;1999.90;999.90;;;12.30;99.90;;;;;;4993452;28;20204;-80
2020/12/23 09:58:51;;;;;;;1999.90;999.90;;;12.50;99.90;;;;;;4994672;28;20263;-78
2020/12/23 10:01:18;;;;;;;1999.90;999.90;;;12.60;99.90;;;;;;4995274;28;20236;-81
2020/12/23 10:03:45;;;;;;;1999.90;999.90;;;12.60;99.90;;;;;;4994732;28;20199;-81
2020/12/23 10:06:13;;;;;;;1999.90;999.90;;;12.60;99.90;;;;;;4994337;28;20211;-80
2020/12/23 10:08:41;;;;;;;1999.90;999.90;;;12.50;99.90;;;;;;4995267;28;20227;-79
2020/12/23 10:11:08;;;;;;;1999.90;999.90;;;12.60;99.90;;;;;;4996023;28;20224;-79
2020/12/23 10:13:38;;;;;;;1999.90;999.90;;;12.60;99.90;;;;;;4994954;28;20208;-81
2020/12/23 10:16:05;;;;;;;1999.90;999.90;;;12.60;99.90;;;;;;4989322;28;20268;-82
2020/12/23 10:18:32;;;;;;;1999.90;999.90;;;12.60;99.90;;;;;;4999606;28;20195;-83
2020/12/23 10:20:59;;;;;;;1999.90;999.90;;;12.60;99.90;;;;;;5000881;28;20227;-82
2020/12/23 10:23:26;;;;;;;1999.90;999.90;;;12.60;99.90;;;;;;4999970;28;20263;-78
2020/12/23 10:25:54;;;;;;;1999.90;999.90;;;12.60;99.90;;;;;;5002932;28;20204;-78
2020/12/23 10:28:21;;;;;;;1999.90;999.90;;;12.60;99.90;;;;;;4998944;28;20212;-79
2020/12/23 10:30:47;;;;;;;1999.90;999.90;;;12.50;99.90;;;;;;4999287;28;20219;-81
2020/12/23 10:33:14;;;;;;;1999.90;999.90;;;12.60;99.90;;;;;;4998255;28;20219;-82
2020/12/23 10:35:41;;;;;;;1999.90;999.90;;;12.50;99.90;;;;;;4999954;28;20208;-78
2020/12/23 10:38:08;;;;;;;1999.90;999.90;;;12.60;99.90;;;;;;4998850;28;20227;-82
2020/12/23 10:40:35;;;;;;;1999.90;999.90;;;12.60;99.90;;;;;;4998644;28;20588;-79
2020/12/23 10:43:07;;;;;;;1999.90;999.90;;;12.70;99.90;;;;;;5001414;28;20184;-78
2020/12/23 10:45:34;;;;;;;1999.90;999.90;;;12.70;99.90;;;;;;4997562;28;20200;-82
2020/12/23 10:48:00;;;;;;;1999.90;999.90;;;12.70;99.90;;;;;;4999021;28;20266;-81
2020/12/23 10:50:27;;;;;;;1999.90;999.90;;;12.80;99.90;;;;;;5001025;28;20278;-82
2020/12/23 10:52:54;;;;;;;1999.90;999.90;;;12.90;99.90;;;;;;5000055;28;20208;-82
2020/12/23 10:55:21;;;;;;;1999.90;999.90;;;12.80;99.90;;;;;;4997389;28;20208;-79
2020/12/23 10:57:48;;;;;;;1999.90;999.90;;;13.00;99.90;;;;;;4999481;28;20235;-79
2020/12/23 11:00:16;;;;;;;1999.90;999.90;;;13.00;99.90;;;;;;4997951;28;20209;-79
2020/12/23 11:02:42;;;;;;;1999.90;999.90;;;13.00;99.90;;;;;;4997619;28;20210;-79
2020/12/23 11:05:09;;;;;;;1999.90;999.90;;;13.00;99.90;;;;;;4996342;28;20688;-79
2020/12/23 11:07:36;;;;;;;1999.90;999.90;;;13.10;99.90;;;;;;4996181;28;20601;-79
2020/12/23 11:10:12;;;;;;;1999.90;999.90;;;13.20;99.90;;;;;;4999892;28;20240;-84
2020/12/23 11:12:39;;;;;;;1999.90;999.90;;;13.10;99.90;;;;;;5003566;28;20239;-84
2020/12/23 11:15:06;;;;;;;1999.90;999.90;;;13.20;99.90;;;;;;5002454;28;20212;-83
2020/12/23 11:17:34;;;;;;;1999.90;999.90;;;13.20;99.90;;;;;;4998467;28;20204;-83
2020/12/23 11:20:01;;;;;;;1999.90;999.90;;;13.10;99.90;;;;;;4997424;28;20617;-81
2020/12/23 11:22:28;;;;;;;1999.90;999.90;;;13.10;99.90;;;;;;4997533;28;20224;-80
2020/12/23 11:25:03;;;;;;;1999.90;999.90;;;13.20;99.90;;;;;;4997240;28;20570;-81
2020/12/23 11:27:30;;;;;;;1999.90;999.90;;;13.30;99.90;;;;;;4997020;28;20204;-80
2020/12/23 11:29:57;;;;;;;1999.90;999.90;;;13.30;99.90;;;;;;4994610;28;20204;-80
2020/12/23 11:32:24;;;;;;;1999.90;999.90;;;13.30;99.90;;;;;;4989870;28;20312;-82
2020/12/23 11:34:51;;;;;;;1999.90;999.90;;;13.30;99.90;;;;;;4988719;28;20673;-84
2020/12/23 11:37:18;;;;;;;1999.90;999.90;;;13.50;99.90;;;;;;4994790;28;20203;-84
2020/12/23 11:39:45;;;;;;;1999.90;999.90;;;13.50;99.90;;;;;;5001483;28;20730;-84
2020/12/23 11:42:12;;;;;;;1999.90;999.90;;;13.50;99.90;;;;;;5013897;28;20231;-84
2020/12/23 11:44:39;;;;;;;1999.90;999.90;;;13.60;99.90;;;;;;5014617;28;20207;-85
2020/12/23 11:47:06;;;;;;;1999.90;999.90;;;13.60;99.90;;;;;;5016864;28;20200;-85
2020/12/23 11:49:33;;;;;;;1999.90;999.90;;;13.60;99.90;;;;;;5015336;28;20629;-85
2020/12/23 11:52:01;;;;;;;1999.90;999.90;;;13.70;99.90;;;;;;5021932;28;20864;-83
2020/12/23 11:54:28;;;;;;;1999.90;999.90;;;13.60;99.90;;;;;;5017232;28;20223;-85
2020/12/23 11:56:55;;;;;;;1999.90;999.90;;;13.60;99.90;;;;;;5016819;28;20617;-85
2020/12/23 11:59:22;;;;;;;1999.90;999.90;;;13.60;99.90;;;;;;5017182;28;20249;-84
2020/12/23 12:01:49;;;;;;;1999.90;999.90;;;13.60;99.90;;;;;;5017639;28;20223;-83
2020/12/23 12:04:16;;;;;;;1999.90;999.90;;;13.60;99.90;;;;;;5017393;28;20211;-84
2020/12/23 12:06:42;;;;;;;1999.90;999.90;;;13.50;99.90;;;;;;5017598;28;20622;-84
2020/12/23 12:09:11;;;;;;;1999.90;999.90;;;13.60;99.90;;;;;;5018964;28;20639;-84
2020/12/23 12:11:37;;;;;;;1999.90;999.90;;;13.50;99.90;;;;;;5018469;28;20700;-84
2020/12/23 12:14:05;;;;;;;1999.90;999.90;;;13.50;99.90;;;;;;5016762;28;20207;-83
2020/12/23 12:16:32;;;;;;;1999.90;999.90;;;13.50;99.90;;;;;;5016644;28;20547;-83
2020/12/23 12:18:58;;;;;;;1999.90;999.90;;;13.50;99.90;;;;;;5016507;28;20226;-83
2020/12/23 12:21:27;;;;;;;1999.90;999.90;;;13.50;99.90;;;;;;5017546;28;20223;-83
2020/12/23 12:23:54;;;;;;;1999.90;999.90;;;13.50;99.90;;;;;;5017491;28;20207;-83
2020/12/23 12:26:29;;;;;;;1999.90;999.90;;;13.50;99.90;;;;;;5016426;28;20207;-82
2020/12/23 12:28:56;;;;;;;1999.90;999.90;;;13.50;99.90;;;;;;5015946;28;20223;-83
2020/12/23 12:31:22;;;;;;;1999.90;999.90;;;13.40;99.90;;;;;;5017131;28;20637;-83
2020/12/23 12:33:49;;;;;;;1999.90;999.90;;;13.40;99.90;;;;;;5016534;28;20230;-82
2020/12/23 12:36:16;;;;;;;1999.90;999.90;;;13.50;99.90;;;;;;5020299;28;20206;-84
2020/12/23 12:38:43;;;;;;;1999.90;999.90;;;13.50;99.90;;;;;;5015675;28;20222;-85
2020/12/23 12:41:10;;;;;;;1999.90;999.90;;;13.50;99.90;;;;;;5015648;28;20223;-83
2020/12/23 12:43:38;;;;;;;1999.90;999.90;;;13.50;99.90;;;;;;5013539;28;20207;-83
2020/12/23 12:46:09;;;;;;;1999.90;999.90;;;13.50;99.90;;;;;;5014204;28;20203;-84
2020/12/23 12:48:53;;;;;;;1999.90;999.90;;;13.60;99.90;;;;;;5014058;28;20223;-83
2020/12/23 12:51:27;;;;;;;1999.90;999.90;;;13.60;99.90;;;;;;5013940;28;20231;-84
2020/12/23 12:53:54;;;;;;;1999.90;999.90;;;13.60;99.90;;;;;;5015629;28;20207;-82
2020/12/23 12:56:24;;;;;;;1999.90;999.90;;;13.60;99.90;;;;;;5013668;28;20676;-82
2020/12/23 12:58:52;;;;;;;1999.90;999.90;;;13.60;99.90;;;;;;5013630;28;20207;-82
2020/12/23 13:01:19;;;;;;;1999.90;999.90;;;13.60;99.90;;;;;;5014558;28;20282;-82
2020/12/23 13:03:46;;;;;;;1999.90;999.90;;;13.60;99.90;;;;;;5015615;28;20607;-83
2020/12/23 13:06:13;;;;;;;1999.90;999.90;;;13.60;99.90;;;;;;5016593;28;20340;-82
2020/12/23 13:08:40;;;;;;;1999.90;999.90;;;13.60;99.90;;;;;;5015323;28;20285;-82
2020/12/23 13:11:07;;;;;;;1999.90;999.90;;;13.60;99.90;;;;;;5015736;28;20640;-81
2020/12/23 13:13:34;;;;;;;1999.90;999.90;;;13.50;99.90;;;;;;5015884;28;20608;-81
2020/12/23 13:16:04;;;;;;;1999.90;999.90;;;13.50;99.90;;;;;;5014115;28;20215;-82
2020/12/23 13:18:31;;;;;;;1999.90;999.90;;;13.50;99.90;;;;;;5014307;28;20294;-81
2020/12/23 13:20:58;;;;;;;1999.90;999.90;;;13.50;99.90;;;;;;5013762;28;20298;-81
2020/12/23 13:23:24;;;;;;;1999.90;999.90;;;13.50;99.90;;;;;;5013641;28;20207;-80
2020/12/23 13:25:51;;;;;;;1999.90;999.90;;;13.50;99.90;;;;;;5014089;28;20624;-81
2020/12/23 13:28:18;;;;;;;1999.90;999.90;;;13.50;99.90;;;;;;5014312;28;20274;-82
2020/12/23 13:30:45;;;;;;;1999.90;999.90;;;13.40;99.90;;;;;;5014303;28;20227;-81
2020/12/23 13:33:13;;;;;;;1999.90;999.90;;;13.30;99.90;;;;;;5015217;28;20207;-83
2020/12/23 13:35:40;;;;;;;1999.90;999.90;;;13.30;99.90;;;;;;4996728;28;20192;-81
2020/12/23 13:38:07;;;;;;;1999.90;999.90;;;13.20;99.90;;;;;;4994987;28;20243;-80
2020/12/23 13:40:34;;;;;;;1999.90;999.90;;;13.20;99.90;;;;;;4995128;28;20216;-81
2020/12/23 13:43:00;;;;;;;1999.90;999.90;;;13.10;99.90;;;;;;4995004;28;20251;-81
2020/12/23 13:45:27;;;;;;;1999.90;999.90;;;13.10;99.90;;;;;;4992208;28;20200;-82
2020/12/23 13:47:54;;;;;;;1999.90;999.90;;;13.10;99.90;;;;;;4994340;28;20200;-81
2020/12/23 13:50:22;;;;;;;1999.90;999.90;;;13.10;99.90;;;;;;4993597;28;20623;-81
2020/12/23 13:52:49;;;;;;;1999.90;999.90;;;13.10;99.90;;;;;;4991268;28;20204;-81
2020/12/23 13:55:16;;;;;;;1999.90;999.90;;;13.20;99.90;;;;;;4994512;28;20607;-81
2020/12/23 13:57:43;;;;;;;1999.90;999.90;;;13.10;99.90;;;;;;4994065;28;20258;-80
2020/12/23 14:00:09;;;;;;;1999.90;999.90;;;13.10;99.90;;;;;;4993655;28;20278;-80
2020/12/23 14:02:36;;;;;;;1999.90;999.90;;;13.10;99.90;;;;;;4993816;28;20266;-80
2020/12/23 14:05:04;;;;;;;1999.90;999.90;;;13.10;99.90;;;;;;4992866;28;20692;-80
2020/12/23 14:07:33;;;;;;;1999.90;999.90;;;13.20;99.90;;;;;;4993654;28;20192;-81
2020/12/23 14:10:01;;;;;;;1999.90;999.90;;;13.20;99.90;;;;;;4993036;28;20212;-81
2020/12/23 14:12:28;;;;;;;1999.90;999.90;;;13.30;99.90;;;;;;4993365;28;20216;-81
2020/12/23 14:14:55;;;;;;;1999.90;999.90;;;13.30;99.90;;;;;;4993750;28;20199;-81
2020/12/23 14:17:22;;;;;;;1999.90;999.90;;;13.30;99.90;;;;;;4993296;28;20204;-80
2020/12/23 14:19:48;;;;;;;1999.90;999.90;;;13.30;99.90;;;;;;4990678;28;20196;-81
2020/12/23 14:22:15;;;;;;;1999.90;999.90;;;13.20;99.90;;;;;;4993473;28;20216;-81
2020/12/23 14:24:43;;;;;;;1999.90;999.90;;;13.20;99.90;;;;;;4993100;28;20236;-81
2020/12/23 14:27:10;;;;;;;1999.90;999.90;;;13.10;99.90;;;;;;4994496;28;20203;-79
2020/12/23 14:29:37;;;;;;;1999.90;999.90;;;13.20;99.90;;;;;;4992772;28;20227;-80
2020/12/23 14:32:04;;;;;;;1999.90;999.90;;;13.10;99.90;;;;;;4992560;28;20220;-79
2020/12/23 14:34:30;;;;;;;1999.90;999.90;;;13.10;99.90;;;;;;4993495;28;20208;-79
2020/12/23 14:36:58;;;;;;;1999.90;999.90;;;13.10;99.90;;;;;;4993066;28;20650;-81
2020/12/23 14:39:25;;;;;;;1999.90;999.90;;;13.00;99.90;;;;;;4993840;28;20254;-81
2020/12/23 14:41:52;;;;;;;1999.90;999.90;;;13.00;99.90;;;;;;4993631;28;20227;-79
2020/12/23 14:44:20;;;;;;;1999.90;999.90;;;13.10;99.90;;;;;;4993568;28;20267;-79
2020/12/23 14:46:49;;;;;;;1999.90;999.90;;;13.20;99.90;;;;;;4993805;28;20231;-81
2020/12/23 14:49:16;;;;;;;1999.90;999.90;;;13.20;99.90;;;;;;4993903;28;20323;-79
2020/12/23 14:51:43;;;;;;;1999.90;999.90;;;13.20;99.90;;;;;;4994534;28;20231;-80
2020/12/23 14:54:10;;;;;;;1999.90;999.90;;;13.30;99.90;;;;;;4994326;28;20250;-80
2020/12/23 14:56:38;;;;;;;1999.90;999.90;;;13.30;99.90;;;;;;4993179;28;20615;-81
2020/12/23 14:59:06;;;;;;;1999.90;999.90;;;13.30;99.90;;;;;;4993707;28;20207;-80
2020/12/23 15:01:34;;;;;;;1999.90;999.90;;;13.30;99.90;;;;;;4993773;28;20271;-81
2020/12/23 15:04:01;;;;;;;1999.90;999.90;;;13.30;99.90;;;;;;4994110;28;20583;-80
2020/12/23 15:06:28;;;;;;;1999.90;999.90;;;13.30;99.90;;;;;;4997872;28;20208;-79
2020/12/23 15:08:55;;;;;;;1999.90;999.90;;;13.30;99.90;;;;;;4997877;28;20219;-79
2020/12/23 15:11:26;;;;;;;1999.90;999.90;;;13.20;99.90;;;;;;4997687;28;20227;-79
2020/12/23 15:13:53;;;;;;;1999.90;999.90;;;13.20;99.90;;;;;;4997785;28;20204;-82
2020/12/23 15:16:21;;;;;;;1999.90;999.90;;;13.10;99.90;;;;;;4997010;28;20669;-79
2020/12/23 15:18:48;;;;;;;1999.90;999.90;;;13.00;99.90;;;;;;4997068;28;20723;-82
2020/12/23 15:21:15;;;;;;;1999.90;999.90;;;12.90;99.90;;;;;;4997263;28;20297;-81
2020/12/23 15:23:42;;;;;;;1999.90;999.90;;;12.90;99.90;;;;;;4997073;28;20644;-82
2020/12/23 15:26:09;;;;;;;1999.90;999.90;;;12.90;99.90;;;;;;4997086;28;20200;-81
2020/12/23 15:28:36;;;;;;;1999.90;999.90;;;13.00;99.90;;;;;;4997358;28;20224;-80
2020/12/23 15:31:03;;;;;;;1999.90;999.90;;;13.00;99.90;;;;;;4997381;28;20647;-81
2020/12/23 15:33:31;;;;;;;1999.90;999.90;;;13.00;99.90;;;;;;4997061;28;20264;-80
2020/12/23 15:35:57;;;;;;;1999.90;999.90;;;12.90;99.90;;;;;;4996488;28;20200;-81
2020/12/23 15:38:24;;;;;;;1999.90;999.90;;;12.90;99.90;;;;;;4996469;28;20204;-81
2020/12/23 15:40:55;;;;;;;1999.90;999.90;;;12.80;99.90;;;;;;4995661;28;20226;-81
2020/12/23 15:43:22;;;;;;;1999.90;999.90;;;12.70;99.90;;;;;;4996403;28;20200;-81
2020/12/23 15:45:49;;;;;;;1999.90;999.90;;;12.70;99.90;;;;;;4990649;28;20200;-83
2020/12/23 15:48:16;;;;;;;1999.90;999.90;;;12.70;99.90;;;;;;4996129;28;20204;-80
2020/12/23 15:50:45;;;;;;;1999.90;999.90;;;12.80;99.90;;;;;;4995041;28;20278;-81
2020/12/23 15:53:12;;;;;;;1999.90;999.90;;;12.80;99.90;;;;;;4995098;28;20204;-81
2020/12/23 15:55:39;;;;;;;1999.90;999.90;;;12.80;99.90;;;;;;4995472;28;20208;-80
2020/12/23 15:58:06;;;;;;;1999.90;999.90;;;12.80;99.90;;;;;;4998102;28;20253;-82
2020/12/23 16:00:32;;;;;;;1999.90;999.90;;;12.70;99.90;;;;;;5010091;28;20238;-81
2020/12/23 16:02:59;;;;;;;1999.90;999.90;;;12.80;99.90;;;;;;5007789;28;20199;-80
2020/12/23 16:05:27;;;;;;;1999.90;999.90;;;12.80;99.90;;;;;;5007589;28;20199;-81
2020/12/23 16:07:54;;;;;;;1999.90;999.90;;;12.90;99.90;;;;;;5013426;28;20726;-81
2020/12/23 16:10:22;;;;;;;1999.90;999.90;;;12.90;99.90;;;;;;4996214;28;20366;-80
2020/12/23 16:12:49;;;;;;;1999.90;999.90;;;13.00;99.90;;;;;;5016241;28;20645;-80
2020/12/23 16:15:16;;;;;;;1999.90;999.90;;;13.00;99.90;;;;;;4997885;28;20204;-80
2020/12/23 16:17:43;;;;;;;1999.90;999.90;;;12.90;99.90;;;;;;4993827;28;20208;-80
2020/12/23 16:20:10;;;;;;;1999.90;999.90;;;12.90;99.90;;;;;;5005418;28;20257;-80
2020/12/23 16:22:37;;;;;;;1999.90;999.90;;;12.90;99.90;;;;;;5004811;28;20208;-81
2020/12/23 16:25:06;;;;;;;1999.90;999.90;;;12.90;99.90;;;;;;4995779;28;20200;-81
2020/12/23 16:27:33;;;;;;;1999.90;999.90;;;12.80;99.90;;;;;;4995686;28;20285;-80
2020/12/23 16:30:00;;;;;;;1999.90;999.90;;;12.80;99.90;;;;;;4995100;28;20272;-81
2020/12/23 16:32:27;;;;;;;1999.90;999.90;;;12.80;99.90;;;;;;4994435;28;20260;-79
2020/12/23 16:34:54;;;;;;;1999.90;999.90;;;12.70;99.90;;;;;;4993763;28;20208;-80
2020/12/23 16:37:22;;;;;;;1999.90;999.90;;;12.70;99.90;;;;;;4993571;28;20208;-79
2020/12/23 16:39:49;;;;;;;1999.90;999.90;;;12.60;99.90;;;;;;4994147;28;20258;-84
2020/12/23 16:42:18;;;;;;;1999.90;999.90;;;12.60;99.90;;;;;;4995596;28;20235;-82
2020/12/23 16:44:46;;;;;;;1999.90;999.90;;;12.60;99.90;;;;;;4994973;28;20250;-79
2020/12/23 16:47:13;;;;;;;1999.90;999.90;;;12.60;99.90;;;;;;4995170;28;20204;-81
2020/12/23 16:49:40;;;;;;;1999.90;999.90;;;12.50;99.90;;;;;;4995433;28;20279;-81
2020/12/23 16:52:08;;;;;;;1999.90;999.90;;;12.60;99.90;;;;;;4996516;28;20224;-81
2020/12/23 16:54:34;;;;;;;1999.90;999.90;;;12.60;99.90;;;;;;4995758;28;20192;-81
2020/12/23 16:57:03;;;;;;;1999.90;999.90;;;12.50;99.90;;;;;;4995616;28;20194;-80
2020/12/23 16:59:33;;;;;;;1999.90;999.90;;;12.50;99.90;;;;;;4995470;28;20196;-82
2020/12/23 17:02:02;;;;;;;1999.90;999.90;;;12.30;99.90;;;;;;4994831;28;20266;-81
2020/12/23 17:04:30;;;;;;;1999.90;999.90;;;12.50;99.90;;;;;;4994360;28;20208;-84
2020/12/23 17:06:58;;;;;;;1999.90;999.90;;;12.60;99.90;;;;;;4996064;28;20203;-86